Time;durP1;ratioP1;P1;durP2;ratioP2;P2;SDS_P1;SDS_P2;PMS_P1;PMS_P2;Temp;Humidity;BMP_temperature;BMP_pressure;BME280_temperature;BME280_humidity;BME280_pressure;Samples;Min_cycle;Max_cycle;Signal;HPM_P1;HPM_P2
2021/11/29 00:02:21;;;;;;;;;;;;;;;;;;;;;
2021/11/29 00:05:00;;;;;;;;;;;;;;;;;;;;;
2021/11/29 00:07:41;;;;;;;;;;;;;;;;;;;;;
2021/11/29 00:10:21;;;;;;;;;;;;;;;;;;;;;
2021/11/29 00:12:57;;;;;;;;;;;;;;;;;;;;;
2021/11/29 00:15:24;;;;;;;;;18.25;16.25;;;;;3.67;66.53;100439.03;6247424;22;72812;-88
2021/11/29 00:18:07;;;;;;;;;;;;;;;;;;;;;
2021/11/29 00:20:46;;;;;;;;;;;;;;;;;;;;;
2021/11/29 00:23:23;;;;;;;;;;;;;;;;;;;;;
2021/11/29 00:26:01;;;;;;;;;;;;;;;;;;;;;
2021/11/29 00:28:37;;;;;;;;;;;;;;;;;;;;;
2021/11/29 00:31:24;;;;;;;;;;;;;;;;;;;;;
2021/11/29 00:33:57;;;;;;;;;22.50;22.50;;;;;3.47;66.41;100417.78;6247056;22;74359;-88
2021/11/29 00:36:36;;;;;;;;;;;;;;;;;;;;;
2021/11/29 00:39:17;;;;;;;;;;;;;;;;;;;;;
2021/11/29 00:41:56;;;;;;;;;;;;;;;;;;;;;
2021/11/29 00:44:32;;;;;;;;;;;;;;;;;;;;;
2021/11/29 00:47:07;;;;;;;;;;;;;;;;;;;;;
2021/11/29 00:49:36;;;;;;;;;20.00;20.00;;;;;3.45;66.35;100440.34;6246189;22;69890;-87
2021/11/29 00:52:06;;;;;;;;;24.00;16.75;;;;;3.46;66.59;100449.00;6221411;22;45410;-87
2021/11/29 00:54:42;;;;;;;;;;;;;;;;;;;;;
2021/11/29 00:57:08;;;;;;;;;22.50;20.75;;;;;3.35;66.65;100459.19;6242878;22;71817;-87
2021/11/29 00:59:46;;;;;;;;;;;;;;;;;;;;;
2021/11/29 01:02:23;;;;;;;;;;;;;;;;;;;;;
2021/11/29 01:04:59;;;;;;;;;;;;;;;;;;;;;
2021/11/29 01:07:38;;;;;;;;;;;;;;;;;;;;;
2021/11/29 01:10:19;;;;;;;;;;;;;;;;;;;;;
2021/11/29 01:12:58;;;;;;;;;;;;;;;;;;;;;
2021/11/29 01:15:43;;;;;;;;;;;;;;;;;;;;;
2021/11/29 01:18:11;;;;;;;;;27.00;19.75;;;;;3.13;67.22;100457.88;6252199;22;71922;-87
2021/11/29 01:20:48;;;;;;;;;23.00;20.00;;;;;3.14;67.65;100470.03;6222182;22;45261;-87
2021/11/29 01:23:31;;;;;;;;;;;;;;;;;;;;;
2021/11/29 01:26:10;;;;;;;;;;;;;;;;;;;;;
2021/11/29 01:28:58;;;;;;;;;;;;;;;;;;;;;
2021/11/29 01:31:24;;;;;;;;;23.25;22.00;;;;;3.12;67.48;100469.09;6254181;22;67886;-88
2021/11/29 01:34:02;;;;;;;;;;;;;;;;;;;;;
2021/11/29 01:36:40;;;;;;;;;;;;;;;;;;;;;
2021/11/29 01:39:22;;;;;;;;;;;;;;;;;;;;;
2021/11/29 01:42:01;;;;;;;;;;;;;;;;;;;;;
2021/11/29 01:44:37;;;;;;;;;;;;;;;;;;;;;
2021/11/29 01:47:14;;;;;;;;;;;;;;;;;;;;;
2021/11/29 01:49:59;;;;;;;;;;;;;;;;;;;;;
2021/11/29 01:52:25;;;;;;;;;19.00;17.00;;;;;3.12;67.54;100505.50;6247638;22;67512;-86
2021/11/29 01:54:52;;;;;;;;;22.50;20.00;;;;;3.02;67.37;100504.44;6221628;22;45443;-87
2021/11/29 01:57:18;;;;;;;;;20.50;17.00;;;;;2.99;67.46;100486.16;6222007;22;47070;-87
2021/11/29 01:59:46;;;;;;;;;20.75;16.75;;;;;3.06;67.96;100495.84;6222031;22;45390;-87
2021/11/29 02:02:15;;;;;;;;;18.50;17.00;;;;;3.02;67.61;100494.03;6249538;22;45439;-86
2021/11/29 02:04:44;;;;;;;;;19.00;17.50;;;;;3.03;68.00;100514.00;6249579;22;45503;-87
2021/11/29 02:07:10;;;;;;;;;22.50;20.25;;;;;2.97;67.59;100503.47;6222473;22;47178;-86
2021/11/29 02:09:35;;;;;;;;;16.25;15.00;;;;;3.00;67.47;100516.53;6223096;22;44722;-87
2021/11/29 02:12:01;;;;;;;;;21.00;17.50;;;;;2.95;67.50;100510.34;6223244;22;45368;-86
2021/11/29 02:14:26;;;;;;;;;15.75;15.75;;;;;2.86;67.79;100502.31;6250571;22;45198;-87
2021/11/29 02:16:52;;;;;;;;;18.50;17.00;;;;;2.85;67.59;100496.22;6250558;22;45379;-86
2021/11/29 02:19:18;;;;;;;;;17.00;14.25;;;;;2.94;67.94;100531.09;6249907;22;45347;-87
2021/11/29 02:21:43;;;;;;;;;19.75;16.75;;;;;2.91;68.38;100533.63;6224464;22;45292;-86
2021/11/29 02:24:09;;;;;;;;;16.50;15.75;;;;;2.95;67.90;100544.13;6225835;22;45257;-86
2021/11/29 02:26:37;;;;;;;;;20.50;18.00;;;;;2.86;68.09;100534.41;6252538;22;46247;-86
2021/11/29 02:29:17;;;;;;;;;18.75;17.00;;;;;2.91;68.12;100544.00;6252651;22;45243;-87
2021/11/29 02:31:45;;;;;;;;;19.00;16.25;;;;;2.88;68.41;100537.91;6225254;22;45364;-86
2021/11/29 02:34:25;;;;;;;;;17.50;15.25;;;;;2.75;68.18;100517.66;6226916;22;45455;-85
2021/11/29 02:36:54;;;;;;;;;19.00;17.75;;;;;2.73;68.32;100521.09;6225992;22;47113;-86
2021/11/29 02:39:45;;;;;;;;;20.25;19.25;;;;;2.69;68.63;100524.44;6226035;22;45699;-86
2021/11/29 02:42:27;;;;;;;;;18.25;16.25;;;;;2.64;68.19;100513.91;6225079;22;45314;-87
2021/11/29 02:44:52;;;;;;;;;16.00;16.00;;;;;2.68;68.57;100528.75;6225431;22;45462;-86
2021/11/29 02:47:18;;;;;;;;;16.00;13.00;;;;;2.63;68.39;100522.56;6224946;22;46808;-85
2021/11/29 02:49:51;;;;;;;;;17.75;14.75;;;;;2.68;68.72;100533.09;6224575;22;44707;-87
2021/11/29 02:52:17;;;;;;;;;20.00;15.75;;;;;2.72;68.70;100543.56;6225455;22;45210;-87
2021/11/29 02:54:47;;;;;;;;;16.00;14.50;;;;;2.75;68.85;100547.97;6224783;22;45880;-87
2021/11/29 02:57:17;;;;;;;;;25.25;16.00;;;;;2.73;68.49;100552.28;6225195;22;48014;-86
2021/11/29 02:59:43;;;;;;;;;15.50;12.50;;;;;2.72;68.60;100546.16;6224924;22;45180;-87
2021/11/29 03:02:15;;;;;;;;;16.00;13.25;;;;;2.79;68.70;100542.88;6253597;22;45157;-87
2021/11/29 03:04:43;;;;;;;;;16.75;16.00;;;;;2.85;68.84;100552.56;6252934;22;44675;-86
2021/11/29 03:07:09;;;;;;;;;17.25;15.50;;;;;3.05;68.58;100577.31;6225614;22;47161;-86
2021/11/29 03:09:36;;;;;;;;;17.00;17.00;;;;;3.08;69.05;100584.31;6230452;22;45380;-87
2021/11/29 03:12:04;;;;;;;;;20.25;16.00;;;;;2.98;68.86;100551.13;6257046;22;45525;-86
2021/11/29 03:14:30;;;;;;;;;17.50;17.00;;;;;3.06;68.56;100560.88;6257134;22;44622;-87
2021/11/29 03:16:57;;;;;;;;;16.75;16.75;;;;;3.21;68.72;100580.28;6224463;22;46767;-86
2021/11/29 03:19:30;;;;;;;;;21.50;16.75;;;;;3.20;68.63;100576.78;6223961;22;45599;-87
2021/11/29 03:21:55;;;;;;;;;17.25;13.00;;;;;3.15;68.18;100569.72;6224440;22;45253;-87
2021/11/29 03:24:21;;;;;;;;;16.00;13.50;;;;;3.11;68.23;100568.78;6251627;22;45134;-87
2021/11/29 03:26:46;;;;;;;;;14.25;12.25;;;;;3.14;68.35;100580.97;6251740;22;46052;-87
2021/11/29 03:29:15;;;;;;;;;18.00;13.00;;;;;3.21;67.80;100603.72;6225251;22;45194;-86
2021/11/29 03:31:43;;;;;;;;;14.00;12.25;;;;;3.18;68.41;100598.41;6225136;22;45417;-86
2021/11/29 03:34:15;;;;;;;;;18.25;16.75;;;;;3.11;68.07;100591.31;6224160;22;45419;-86
2021/11/29 03:36:43;;;;;;;;;15.50;13.50;;;;;3.17;68.25;100610.53;6250719;22;45388;-86
2021/11/29 03:39:11;;;;;;;;;17.50;12.75;;;;;3.07;68.48;100593.84;6222948;22;45230;-87
2021/11/29 03:41:38;;;;;;;;;13.00;11.00;;;;;3.04;68.41;100593.75;6250467;22;45242;-87
2021/11/29 03:44:05;;;;;;;;;12.50;12.25;;;;;3.06;68.52;100597.28;6223621;22;45659;-86
2021/11/29 03:46:30;;;;;;;;;15.75;9.75;;;;;3.15;68.81;100611.34;6223564;22;47601;-87
2021/11/29 03:48:56;;;;;;;;;11.75;11.75;;;;;3.08;68.44;100613.81;6250560;22;45346;-86
2021/11/29 03:51:24;;;;;;;;;17.25;13.50;;;;;2.91;68.81;100586.50;6223324;22;45301;-87
2021/11/29 03:53:49;;;;;;;;;12.75;11.50;;;;;2.97;68.26;100597.06;6250403;22;45197;-85
2021/11/29 03:56:20;;;;;;;;;13.50;12.00;;;;;3.09;68.55;100627.69;6250651;22;46269;-87
2021/11/29 03:58:49;;;;;;;;;14.50;11.25;;;;;3.14;68.54;100635.59;6222726;22;45378;-85
2021/11/29 04:01:14;;;;;;;;;16.25;13.00;;;;;3.08;68.79;100634.59;6226069;22;45174;-86
2021/11/29 04:03:39;;;;;;;;;14.25;10.25;;;;;3.02;68.87;100618.88;6228213;22;45178;-86
2021/11/29 04:06:05;;;;;;;;;18.50;13.00;;;;;3.15;68.34;100642.56;6228969;22;48092;-87
2021/11/29 04:08:31;;;;;;;;;21.00;12.00;;;;;3.15;68.60;100647.75;6250358;22;45119;-87
2021/11/29 04:10:59;;;;;;;;;13.00;10.75;;;;;3.06;68.72;100640.59;6223470;22;45174;-87
2021/11/29 04:13:25;;;;;;;;;14.25;13.00;;;;;3.12;68.75;100647.69;6222741;22;45871;-87
2021/11/29 04:15:52;;;;;;;;;10.50;10.00;;;;;3.18;68.09;100658.22;6223002;22;45376;-86
2021/11/29 04:18:18;;;;;;;;;12.50;11.00;;;;;3.00;68.25;100637.88;6221766;22;45743;-87
2021/11/29 04:20:47;;;;;;;;;9.25;8.50;;;;;3.16;68.62;100662.53;6249229;22;45437;-87
2021/11/29 04:23:12;;;;;;;;;10.00;9.00;;;;;3.08;68.38;100650.22;6221807;22;45511;-86
2021/11/29 04:25:46;;;;;;;;;11.00;10.50;;;;;3.14;68.65;100666.81;6249422;22;45193;-87
2021/11/29 04:28:11;;;;;;;;;15.75;12.25;;;;;3.06;68.51;100654.47;6221906;22;45253;-86
2021/11/29 04:30:37;;;;;;;;;14.75;11.00;;;;;3.14;68.68;100656.41;6223653;22;45270;-87
2021/11/29 04:33:03;;;;;;;;;10.00;9.00;;;;;3.12;68.50;100655.47;6231284;22;45154;-86
2021/11/29 04:35:28;;;;;;;;;12.50;10.00;;;;;3.01;68.43;100648.28;6258072;22;45315;-86
2021/11/29 04:37:54;;;;;;;;;10.50;8.75;;;;;3.12;68.63;100665.88;6223334;22;45402;-86
2021/11/29 04:40:22;;;;;;;;;9.25;9.25;;;;;3.14;68.70;100680.69;6250806;22;45425;-86
2021/11/29 04:42:47;;;;;;;;;14.00;13.00;;;;;3.14;68.12;100674.63;6223269;22;45480;-86
2021/11/29 04:45:13;;;;;;;;;12.25;7.25;;;;;2.96;68.36;100647.28;6250367;22;46175;-85
2021/11/29 04:47:41;;;;;;;;;10.50;10.50;;;;;3.02;68.58;100665.66;6250072;22;45392;-86
2021/11/29 04:50:07;;;;;;;;;4.50;4.00;;;;;2.99;68.58;100664.69;6224199;22;45185;-86
2021/11/29 04:52:36;;;;;;;;;12.75;12.50;;;;;2.96;68.74;100662.88;6222649;22;45189;-86
2021/11/29 04:55:02;;;;;;;;;10.25;9.75;;;;;3.08;68.37;100684.03;6222100;22;47737;-86
2021/11/29 04:57:31;;;;;;;;;8.00;8.00;;;;;3.07;68.33;100686.56;6249483;22;45226;-86
2021/11/29 04:59:56;;;;;;;;;10.00;10.00;;;;;3.06;68.38;100687.41;6249499;22;45272;-84
2021/11/29 05:02:25;;;;;;;;;9.75;8.25;;;;;3.01;68.30;100692.50;6249269;22;45378;-85
2021/11/29 05:04:50;;;;;;;;;10.50;8.75;;;;;2.93;68.69;100675.81;6248511;22;46300;-85
2021/11/29 05:07:19;;;;;;;;;9.75;7.25;;;;;2.91;68.68;100681.81;6221318;22;45256;-86
2021/11/29 05:09:45;;;;;;;;;9.75;5.50;;;;;3.05;69.11;100719.47;6249005;22;45246;-86
2021/11/29 05:12:16;;;;;;;;;15.00;11.00;;;;;2.93;68.94;100699.22;6221548;22;45303;-85
2021/11/29 05:14:49;;;;;;;;;8.75;6.00;;;;;2.99;69.18;100714.97;6221027;22;46246;-86
2021/11/29 05:17:17;;;;;;;;;10.75;8.00;;;;;3.00;68.93;100710.69;6221143;22;45383;-87
2021/11/29 05:19:42;;;;;;;;;9.75;8.75;;;;;3.01;68.89;100722.81;6220723;22;45383;-86
2021/11/29 05:22:08;;;;;;;;;8.75;6.00;;;;;3.01;69.17;100725.41;6248956;22;45280;-86
2021/11/29 05:24:34;;;;;;;;;8.00;6.00;;;;;2.99;68.49;100735.78;6223933;22;47211;-86
2021/11/29 05:26:59;;;;;;;;;9.75;8.00;;;;;2.98;68.91;100744.41;6254148;22;45228;-86
2021/11/29 05:29:25;;;;;;;;;7.00;7.00;;;;;2.88;69.10;100724.22;6228454;22;45217;-85
2021/11/29 05:31:51;;;;;;;;;10.00;9.75;;;;;2.98;68.94;100740.94;6236628;22;45162;-85
2021/11/29 05:34:19;;;;;;;;;8.50;5.75;;;;;2.97;68.95;100742.69;6264342;22;45398;-85
2021/11/29 05:36:45;;;;;;;;;7.00;6.00;;;;;3.00;69.08;100752.28;6262816;22;45237;-85
2021/11/29 05:39:14;;;;;;;;;6.00;5.75;;;;;3.04;69.02;100764.50;6251287;22;45287;-84
2021/11/29 05:41:40;;;;;;;;;8.25;8.25;;;;;2.95;69.26;100752.16;6223555;22;45147;-86
2021/11/29 05:44:06;;;;;;;;;10.50;9.50;;;;;2.93;69.15;100751.22;6250020;22;45162;-86
2021/11/29 05:46:34;;;;;;;;;10.50;9.75;;;;;2.96;68.91;100761.69;6225412;22;45122;-85
2021/11/29 05:49:01;;;;;;;;;8.25;8.00;;;;;2.87;69.07;100748.47;6252894;22;45254;-86
2021/11/29 05:51:27;;;;;;;;;7.75;7.75;;;;;2.94;68.77;100767.69;6224038;22;45478;-86
2021/11/29 05:53:52;;;;;;;;;9.25;8.25;;;;;3.00;69.08;100781.75;6250680;22;45457;-85
2021/11/29 05:56:18;;;;;;;;;7.00;7.00;;;;;2.87;68.79;100756.25;6249651;22;45304;-85
2021/11/29 05:58:46;;;;;;;;;14.25;12.00;;;;;3.08;68.91;100793.25;6221126;22;44804;-86
2021/11/29 06:01:12;;;;;;;;;11.00;9.75;;;;;2.93;69.22;100765.94;6248365;22;45093;-85
2021/11/29 06:03:37;;;;;;;;;11.00;10.00;;;;;3.05;68.89;100802.69;6247647;22;46193;-86
2021/11/29 06:06:03;;;;;;;;;9.00;9.00;;;;;3.08;68.69;100802.78;6248562;22;45222;-86
2021/11/29 06:08:28;;;;;;;;;7.50;7.50;;;;;3.08;68.99;100811.47;6248469;22;45359;-86
2021/11/29 06:10:54;;;;;;;;;7.00;7.00;;;;;2.95;68.95;100787.69;6248246;22;45159;-85
2021/11/29 06:13:19;;;;;;;;;8.00;7.50;;;;;3.00;69.04;100801.69;6247938;22;45387;-86
2021/11/29 06:15:45;;;;;;;;;10.00;10.00;;;;;3.06;69.03;100818.31;6220303;22;45374;-86
2021/11/29 06:18:11;;;;;;;;;10.00;9.50;;;;;2.88;69.28;100792.69;6247760;22;45414;-86
2021/11/29 06:20:36;;;;;;;;;14.00;11.25;;;;;2.86;69.25;100791.78;6220817;22;45649;-86
2021/11/29 06:23:03;;;;;;;;;8.75;8.75;;;;;3.01;68.96;100824.25;6220646;22;47843;-87
2021/11/29 06:25:29;;;;;;;;;8.75;7.50;;;;;2.87;69.23;100809.13;6248301;22;45420;-86
2021/11/29 06:27:55;;;;;;;;;8.00;8.00;;;;;2.88;69.40;100818.69;6248328;22;45122;-86
2021/11/29 06:30:21;;;;;;;;;9.50;9.50;;;;;2.90;69.09;100849.94;6248119;22;45161;-86
2021/11/29 06:33:10;;;;;;;;;11.50;8.50;;;;;2.96;69.27;100857.91;6221701;22;46781;-86
2021/11/29 06:35:38;;;;;;;;;16.75;10.00;;;;;2.82;69.28;100835.84;6248230;22;45327;-87
2021/11/29 06:38:05;;;;;;;;;18.50;13.75;;;;;2.87;69.42;100842.06;6220625;22;45356;-86
2021/11/29 06:40:33;;;;;;;;;13.50;11.00;;;;;2.92;69.50;100852.59;6229649;22;45157;-84
2021/11/29 06:43:01;;;;;;;;;9.25;9.00;;;;;2.89;69.63;100861.19;6254391;22;46335;-86
2021/11/29 06:45:27;;;;;;;;;14.50;13.00;;;;;2.86;69.26;100858.47;6229997;22;45372;-85
2021/11/29 06:47:53;;;;;;;;;11.00;10.25;;;;;2.77;69.73;100859.09;6232079;22;45329;-87
2021/11/29 06:50:19;;;;;;;;;9.25;9.25;;;;;2.88;69.89;100872.41;6257369;22;45241;-87
2021/11/29 06:52:44;;;;;;;;;13.00;11.25;;;;;2.92;69.68;100886.41;6220637;22;46874;-86
2021/11/29 06:55:15;;;;;;;;;11.00;8.00;;;;;2.87;69.67;100878.44;6220923;22;45485;-87
2021/11/29 06:57:41;;;;;;;;;16.25;13.00;;;;;2.80;69.87;100871.28;6222630;22;45322;-86
2021/11/29 07:00:12;;;;;;;;;12.50;10.75;;;;;2.88;69.41;100896.69;6222489;22;45379;-85
2021/11/29 07:02:41;;;;;;;;;12.50;10.25;;;;;2.93;69.86;100909.81;6248239;22;46529;-86
2021/11/29 07:05:07;;;;;;;;;12.50;12.00;;;;;2.92;69.64;100918.47;6248826;22;45299;-86
2021/11/29 07:07:43;;;;;;;;;;;;;;;;;;;;;
2021/11/29 07:10:20;;;;;;;;;;;;;;;;;;;;;
2021/11/29 07:12:59;;;;;;;;;;;;;;;;;;;;;
2021/11/29 07:15:37;;;;;;;;;;;;;;;;;;;;;
2021/11/29 07:18:22;;;;;;;;;;;;;;;;;;;;;
2021/11/29 07:21:00;;;;;;;;;;;;;;;;;;;;;
2021/11/29 07:23:54;;;;;;;;;;;;;;;;;;;;;
2021/11/29 07:26:45;;;;;;;;;;;;;;;;;;;;;
2021/11/29 07:29:22;;;;;;;;;;;;;;;;;;;;;
2021/11/29 07:32:02;;;;;;;;;;;;;;;;;;;;;
2021/11/29 07:34:44;;;;;;;;;;;;;;;;;;;;;
2021/11/29 07:37:20;;;;;;;;;;;;;;;;;;;;;
2021/11/29 07:40:03;;;;;;;;;;;;;;;;;;;;;
2021/11/29 07:42:40;;;;;;;;;;;;;;;;;;;;;
2021/11/29 07:45:40;;;;;;;;;;;;;;;;;;;;;
2021/11/29 07:48:16;;;;;;;;;12.00;9.00;;;;;2.91;69.75;100965.22;6246026;22;71984;-87
2021/11/29 07:50:54;;;;;;;;;;;;;;;;;;;;;
2021/11/29 07:53:33;;;;;;;;;;;;;;;;;;;;;
2021/11/29 07:56:09;;;;;;;;;;;;;;;;;;;;;
2021/11/29 07:58:42;;;;;;;;;13.50;13.50;;;;;3.01;69.26;100983.75;6215506;22;73186;-86
2021/11/29 08:01:18;;;;;;;;;;;;;;;;;;;;;
2021/11/29 08:03:44;;;;;;;;;16.75;13.50;;;;;2.91;69.51;100973.03;6215608;22;72671;-86
2021/11/29 08:06:22;;;;;;;;;;;;;;;;;;;;;
2021/11/29 08:09:04;;;;;;;;;15.50;15.00;;;;;3.01;69.59;100998.47;6215558;22;72969;-85
2021/11/29 08:11:37;;;;;;;;;15.75;14.00;;;;;2.96;69.76;101000.06;6217732;22;45215;-87
2021/11/29 08:14:19;;;;;;;;;;;;;;;;;;;;;
2021/11/29 08:16:55;;;;;;;;;;;;;;;;;;;;;
2021/11/29 08:19:20;;;;;;;;;14.75;14.00;;;;;2.87;69.82;101011.94;6216282;22;73331;-86
2021/11/29 08:21:46;;;;;;;;;18.50;16.00;;;;;2.84;69.67;101006.63;6190646;22;45183;-86
2021/11/29 08:24:11;;;;;;;;;16.00;12.00;;;;;2.86;69.94;101017.97;6190853;22;45452;-85
2021/11/29 08:26:37;;;;;;;;;12.50;10.50;;;;;3.04;69.73;101042.78;6218040;22;45345;-86
2021/11/29 08:29:02;;;;;;;;;22.50;15.50;;;;;2.92;70.02;101022.47;6190565;22;45658;-86
2021/11/29 08:31:31;;;;;;;;;14.75;13.00;;;;;2.98;69.76;101038.28;6190848;22;45076;-87
2021/11/29 08:33:56;;;;;;;;;20.00;15.75;;;;;2.93;70.02;101028.56;6190506;22;46276;-85
2021/11/29 08:36:22;;;;;;;;;15.75;15.00;;;;;2.99;69.93;101036.53;6190251;22;47470;-86
2021/11/29 08:38:50;;;;;;;;;20.50;18.75;;;;;3.05;70.14;101047.16;6191218;22;46050;-86
2021/11/29 08:41:16;;;;;;;;;23.50;21.00;;;;;2.99;69.74;101041.75;6190900;22;45202;-86
2021/11/29 08:43:42;;;;;;;;;22.00;22.00;;;;;3.03;69.91;101038.44;6190388;22;45379;-86
2021/11/29 08:46:08;;;;;;;;;19.50;17.75;;;;;3.11;70.13;101049.94;6190469;22;47966;-86
2021/11/29 08:48:36;;;;;;;;;23.25;20.00;;;;;3.08;69.50;101040.34;6190412;22;45187;-86
2021/11/29 08:51:01;;;;;;;;;21.75;19.25;;;;;3.14;69.64;101052.63;6190809;22;45301;-86
2021/11/29 08:53:27;;;;;;;;;22.00;17.75;;;;;3.07;69.94;101037.66;6190484;22;45372;-86
2021/11/29 08:55:56;;;;;;;;;21.75;21.00;;;;;3.06;69.84;101039.41;6218760;22;46133;-85
2021/11/29 08:58:23;;;;;;;;;26.50;22.50;;;;;3.17;70.02;101046.66;6191882;22;45887;-85
2021/11/29 09:00:50;;;;;;;;;15.00;14.75;;;;;3.15;69.95;101048.31;6220078;22;45247;-85
2021/11/29 09:03:16;;;;;;;;;20.75;17.75;;;;;3.21;69.71;101053.72;6218934;22;45444;-85
2021/11/29 09:05:45;;;;;;;;;16.25;13.75;;;;;3.19;69.70;101056.28;6219405;22;45379;-85
2021/11/29 09:08:12;;;;;;;;;17.00;13.00;;;;;3.15;69.80;101051.78;6218479;22;45246;-86
2021/11/29 09:10:44;;;;;;;;;17.00;15.25;;;;;3.21;69.84;101061.53;6218912;22;45162;-85
2021/11/29 09:13:12;;;;;;;;;20.00;17.75;;;;;3.32;70.06;101086.16;6218675;22;45268;-85
2021/11/29 09:15:38;;;;;;;;;22.25;20.00;;;;;3.24;70.01;101069.44;6192465;22;46374;-85
2021/11/29 09:18:04;;;;;;;;;20.00;18.00;;;;;3.31;70.02;101071.38;6220604;22;45541;-85
2021/11/29 09:20:30;;;;;;;;;18.00;15.00;;;;;3.35;70.31;101088.84;6194651;22;45350;-86
2021/11/29 09:22:56;;;;;;;;;20.25;15.00;;;;;3.40;70.30;101092.50;6220916;22;45329;-85
2021/11/29 09:25:32;;;;;;;;;;;;;;;;;;;;;
2021/11/29 09:27:58;;;;;;;;;22.00;16.75;;;;;3.37;70.40;101070.66;6220695;22;72848;-85
2021/11/29 09:30:24;;;;;;;;;20.00;18.25;;;;;3.48;70.68;101085.78;6222304;22;45430;-85
2021/11/29 09:32:50;;;;;;;;;20.25;16.75;;;;;3.64;70.32;101107.09;6195788;22;45419;-85
2021/11/29 09:35:17;;;;;;;;;22.00;18.25;;;;;3.63;70.62;101094.91;6196184;22;47156;-85
2021/11/29 09:37:43;;;;;;;;;24.00;17.25;;;;;3.71;70.17;101109.03;6198922;22;44674;-85
2021/11/29 09:40:13;;;;;;;;;19.50;15.50;;;;;3.83;70.00;101117.22;6198516;22;45087;-86
2021/11/29 09:42:42;;;;;;;;;20.00;13.75;;;;;3.72;70.26;101090.84;6208998;22;44744;-85
2021/11/29 09:45:09;;;;;;;;;16.75;13.50;;;;;3.89;70.63;101109.56;6214180;22;47181;-85
2021/11/29 09:47:34;;;;;;;;;17.25;14.75;;;;;3.94;70.35;101094.97;6214125;22;44818;-85
2021/11/29 09:50:01;;;;;;;;;20.25;17.50;;;;;4.18;70.04;101125.16;6214142;22;44754;-85
2021/11/29 09:52:28;;;;;;;;;16.50;15.25;;;;;4.24;69.78;101129.66;6240394;22;44670;-85
2021/11/29 09:55:00;;;;;;;;;20.50;17.75;;;;;4.16;69.93;101104.25;6240335;22;45330;-86
2021/11/29 09:57:28;;;;;;;;;23.25;17.25;;;;;4.25;70.16;101105.34;6240896;22;44775;-85
2021/11/29 09:59:59;;;;;;;;;20.25;17.00;;;;;4.42;69.87;101114.53;6241016;22;44802;-85
2021/11/29 10:02:27;;;;;;;;;18.25;15.50;;;;;4.62;69.40;101134.22;6240708;22;45285;-85
2021/11/29 10:04:53;;;;;;;;;12.00;12.00;;;;;4.74;69.24;101144.09;6239747;22;45182;-86
2021/11/29 10:07:33;;;;;;;;;16.25;15.25;;;;;4.70;69.43;101103.09;6227118;22;45270;-86
2021/11/29 10:10:14;;;;;;;;;13.75;13.75;;;;;4.84;69.23;101114.78;6219874;22;45164;-87
2021/11/29 10:12:47;;;;;;;;;17.00;17.00;;;;;5.11;69.24;101145.03;6192082;22;45545;-86
2021/11/29 10:15:31;;;;;;;;;17.75;15.00;;;;;5.26;68.74;101145.38;6192647;22;47060;-86
2021/11/29 10:18:26;;;;;;;;;16.00;12.75;;;;;5.41;68.23;101144.88;6219679;22;45408;-87
2021/11/29 10:21:08;;;;;;;;;17.50;15.00;;;;;5.55;68.24;101146.94;6222995;22;45186;-86
2021/11/29 10:23:38;;;;;;;;;17.00;15.75;;;;;5.67;67.88;101149.84;6196057;22;45466;-86
2021/11/29 10:26:08;;;;;;;;;15.25;15.00;;;;;5.71;67.84;101141.22;6195000;22;47155;-86
2021/11/29 10:28:42;;;;;;;;;16.75;14.75;;;;;5.85;67.43;101155.44;6196859;22;45226;-86
2021/11/29 10:31:19;;;;;;;;;19.75;16.50;;;;;5.86;67.28;101138.06;6230279;22;45139;-86
2021/11/29 10:33:46;;;;;;;;;15.25;14.75;;;;;6.08;67.58;101142.94;6227349;22;45256;-85
2021/11/29 10:36:17;;;;;;;;;15.50;14.75;;;;;6.19;66.62;101141.41;6193979;22;48155;-87
2021/11/29 10:38:48;;;;;;;;;18.00;15.25;;;;;6.18;66.37;101121.34;6192692;22;45225;-87
2021/11/29 10:41:14;;;;;;;;;17.00;16.00;;;;;6.39;66.55;101146.19;6218704;22;45211;-87
2021/11/29 10:43:43;;;;;;;;;14.75;12.75;;;;;6.40;66.19;101119.16;6217306;22;45201;-87
2021/11/29 10:46:33;;;;;;;;;10.25;9.50;;;;;6.55;65.87;101131.66;6190273;22;46067;-86
2021/11/29 10:49:06;;;;;;;;;12.00;11.50;;;;;6.66;65.56;101140.59;6217714;22;45412;-86
2021/11/29 10:51:38;;;;;;;;;15.75;15.25;;;;;6.92;65.62;101155.88;6218657;22;45466;-86
2021/11/29 10:54:10;;;;;;;;;13.25;10.75;;;;;7.01;65.08;101143.84;6193537;22;45579;-87
2021/11/29 10:56:39;;;;;;;;;15.75;13.75;;;;;7.18;64.97;101153.72;6190071;22;46030;-87
2021/11/29 10:59:12;;;;;;;;;14.50;10.75;;;;;7.29;64.68;101155.63;6217816;22;45384;-87
2021/11/29 11:01:43;;;;;;;;;12.75;12.25;;;;;7.29;64.04;101139.03;6218568;22;45231;-88
2021/11/29 11:04:20;;;;;;;;;12.25;12.25;;;;;7.49;63.99;101155.97;6189945;22;45563;-87
2021/11/29 11:07:06;;;;;;;;;11.50;11.50;;;;;7.47;63.71;101149.81;6192577;22;47183;-87
2021/11/29 11:09:42;;;;;;;;;8.00;6.75;;;;;7.51;63.35;101159.50;6192915;22;45482;-87
2021/11/29 11:12:13;;;;;;;;;12.00;11.00;;;;;7.52;63.08;101152.50;6193675;22;45429;-87
2021/11/29 11:14:57;;;;;;;;;;;;;;;;;;;;;
2021/11/29 11:17:25;;;;;;;;;13.75;11.25;;;;;7.56;62.59;101148.19;6217355;22;73762;-86
2021/11/29 11:20:09;;;;;;;;;18.00;11.00;;;;;7.69;63.00;101142.28;6217936;22;45203;-87
2021/11/29 11:22:37;;;;;;;;;12.50;11.75;;;;;8.05;62.49;101169.88;6218622;22;45186;-86
2021/11/29 11:25:20;;;;;;;;;15.25;14.00;;;;;8.24;62.18;101165.75;6216789;22;45269;-86
2021/11/29 11:27:59;;;;;;;;;7.50;7.50;;;;;8.49;61.27;101170.44;6217507;22;46098;-86
2021/11/29 11:30:27;;;;;;;;;14.00;12.00;;;;;8.56;61.39;101145.19;6218405;22;45158;-88
2021/11/29 11:33:00;;;;;;;;;13.25;12.50;;;;;8.77;60.61;101139.28;6220328;22;45321;-86
2021/11/29 11:36:14;;;;;;;;;14.50;9.50;;;;;9.01;60.41;101150.00;6190816;22;45423;-87
2021/11/29 11:38:39;;;;;;;;;10.50;9.00;;;;;9.22;59.52;101148.41;6169430;22;47243;-87
2021/11/29 11:41:07;;;;;;;;;12.25;12.25;;;;;9.41;59.38;101141.56;6217245;22;45478;-87
2021/11/29 11:43:35;;;;;;;;;16.75;13.75;;;;;9.80;59.06;101156.72;6191974;22;45445;-89
2021/11/29 11:46:10;;;;;;;;;10.50;10.00;;;;;10.18;58.19;101163.06;6191203;22;45464;-88
2021/11/29 11:49:29;;;;;;;;;;;;;;;;;;;;;
2021/11/29 11:52:28;;;;;;;;;;;;;;;;;;;;;
2021/11/29 11:54:57;;;;;;;;;10.75;10.00;;;;;11.79;55.38;101160.69;6217954;22;67808;-87
2021/11/29 11:58:35;;;;;;;;;;;;;;;;;;;;;
2021/11/29 12:01:18;;;;;;;;;12.50;12.50;;;;;12.49;53.04;101178.97;6171767;22;45303;-90
2021/11/29 12:04:32;;;;;;;;;;;;;;;;;;;;;
2021/11/29 12:07:34;;;;;;;;;15.00;15.00;;;;;13.10;51.91;101182.16;6218114;22;67852;-88
2021/11/29 12:10:38;;;;;;;;;;;;;;;;;;;;;
2021/11/29 12:13:25;;;;;;;;;12.25;12.00;;;;;13.49;50.96;101167.75;6216397;22;74386;-89
2021/11/29 12:15:56;;;;;;;;;9.25;8.75;;;;;13.70;49.84;101169.31;6188664;22;45630;-89
2021/11/29 12:18:40;;;;;;;;;14.00;11.50;;;;;13.92;49.54;101177.91;6222516;22;45393;-88
2021/11/29 12:21:20;;;;;;;;;14.50;11.75;;;;;14.12;49.07;101185.66;6168525;23;45343;-90
2021/11/29 12:24:16;;;;;;;;;;;;;;;;;;;;;
2021/11/29 12:29:22;;;;;;;;;8.50;6.50;;;;;13.60;48.04;101187.03;6186487;23;45375;-88
2021/11/29 12:32:13;;;;;;;;;;;;;;;;;;;;;
2021/11/29 12:35:05;;;;;;;;;4.25;4.00;;;;;13.46;48.06;101184.50;6187830;23;75695;-88
2021/11/29 12:37:50;;;;;;;;;;;;;;;;;;;;;
2021/11/29 12:40:41;;;;;;;;;6.25;6.00;;;;;13.67;47.76;101186.09;6189720;23;67863;-89
2021/11/29 12:47:59;;;;;;;;;6.00;6.00;;;;;14.18;47.16;101188.22;6134698;23;45222;-87
2021/11/29 12:50:43;;;;;;;;;;;;;;;;;;;;;
2021/11/29 12:53:25;;;;;;;;;7.00;5.00;;;;;14.70;46.72;101189.34;6186990;23;68368;-88
2021/11/29 12:56:20;;;;;;;;;;;;;;;;;;;;;
2021/11/29 12:59:10;;;;;;;;;;;;;;;;;;;;;
2021/11/29 13:01:48;;;;;;;;;3.00;3.00;;;;;14.94;44.94;101174.88;6186300;23;72278;-89
2021/11/29 13:04:37;;;;;;;;;4.00;3.67;;;;;15.04;45.22;101184.44;6160647;23;45319;-89
2021/11/29 13:07:17;;;;;;;;;;;;;;;;;;;;;
2021/11/29 13:10:04;;;;;;;;;;;;;;;;;;;;;
2021/11/29 13:12:31;;;;;;;;;6.00;6.00;;;;;15.11;44.12;101187.91;6187915;23;71488;-90
2021/11/29 13:15:33;;;;;;;;;3.67;2.00;;;;;15.15;43.12;101189.59;6162555;23;45264;-89
2021/11/29 13:17:59;;;;;;;;;3.33;3.33;;;;;14.97;42.56;101185.47;6191041;23;45513;-89
2021/11/29 13:20:48;;;;;;;;;4.00;4.00;;;;;14.96;42.35;101196.94;6181846;23;47134;-89
2021/11/29 13:23:26;;;;;;;;;9.33;6.00;;;;;14.92;42.97;101196.13;6181363;23;44751;-88
2021/11/29 13:26:06;;;;;;;;;5.00;3.67;;;;;14.83;42.13;101187.41;6164730;23;45360;-90
2021/11/29 13:28:31;;;;;;;;;7.33;6.00;;;;;14.88;41.97;101204.13;6162040;23;45152;-91